sensor_id;sensor_type;location;lat;lon;timestamp;pressure;altitude;pressure_sealevel;temperature;humidity
36234;BME280;43467;50.890;5.982;2023-10-08T00:00:13;100953.09;;;18.06;72.24
36234;BME280;43467;50.890;5.982;2023-10-08T00:02:57;100953.03;;;18.08;71.89
36234;BME280;43467;50.890;5.982;2023-10-08T00:05:22;100963.81;;;18.06;71.82
36234;BME280;43467;50.890;5.982;2023-10-08T00:07:48;100967.06;;;18.11;71.87
36234;BME280;43467;50.890;5.982;2023-10-08T00:10:14;100971.00;;;18.06;71.96
36234;BME280;43467;50.890;5.982;2023-10-08T00:12:39;100971.66;;;18.09;71.84
36234;BME280;43467;50.890;5.982;2023-10-08T00:15:05;100965.19;;;17.99;72.14
36234;BME280;43467;50.890;5.982;2023-10-08T00:17:35;100980.13;;;18.03;71.94
36234;BME280;43467;50.890;5.982;2023-10-08T00:20:01;100975.63;;;18.04;71.76
36234;BME280;43467;50.890;5.982;2023-10-08T00:22:28;100962.06;;;17.93;71.65
36234;BME280;43467;50.890;5.982;2023-10-08T00:25:01;100960.22;;;17.93;71.52
36234;BME280;43467;50.890;5.982;2023-10-08T00:27:26;100957.94;;;17.87;71.51
36234;BME280;43467;50.890;5.982;2023-10-08T00:29:52;100981.34;;;17.98;71.36
36234;BME280;43467;50.890;5.982;2023-10-08T00:32:17;100961.50;;;17.88;71.06
36234;BME280;43467;50.890;5.982;2023-10-08T00:34:43;100965.69;;;17.92;71.04
36234;BME280;43467;50.890;5.982;2023-10-08T00:37:10;100971.13;;;17.90;70.74
36234;BME280;43467;50.890;5.982;2023-10-08T00:39:39;100943.53;;;17.76;70.53
36234;BME280;43467;50.890;5.982;2023-10-08T00:42:06;100966.34;;;17.95;70.43
36234;BME280;43467;50.890;5.982;2023-10-08T00:44:33;100921.72;;;17.68;70.18
36234;BME280;43467;50.890;5.982;2023-10-08T00:47:04;100951.06;;;17.83;69.70
36234;BME280;43467;50.890;5.982;2023-10-08T00:49:30;100933.03;;;17.73;69.37
36234;BME280;43467;50.890;5.982;2023-10-08T00:52:11;100903.63;;;17.57;69.07
36234;BME280;43467;50.890;5.982;2023-10-08T00:54:38;100943.13;;;17.82;69.32
36234;BME280;43467;50.890;5.982;2023-10-08T00:57:26;100932.16;;;17.72;68.82
36234;BME280;43467;50.890;5.982;2023-10-08T00:59:52;100924.63;;;17.64;69.00
36234;BME280;43467;50.890;5.982;2023-10-08T01:02:29;100950.63;;;17.77;68.94
36234;BME280;43467;50.890;5.982;2023-10-08T01:05:09;100921.25;;;17.61;69.19
36234;BME280;43467;50.890;5.982;2023-10-08T01:07:37;100958.66;;;17.77;68.95
36234;BME280;43467;50.890;5.982;2023-10-08T01:10:05;100955.09;;;17.76;68.57
36234;BME280;43467;50.890;5.982;2023-10-08T01:12:36;100951.56;;;17.76;68.40
36234;BME280;43467;50.890;5.982;2023-10-08T01:15:10;100955.78;;;17.80;67.86
36234;BME280;43467;50.890;5.982;2023-10-08T01:17:49;100965.81;;;17.76;67.56
36234;BME280;43467;50.890;5.982;2023-10-08T01:20:23;100970.88;;;17.81;67.74
36234;BME280;43467;50.890;5.982;2023-10-08T01:23:03;100975.56;;;17.77;67.81
36234;BME280;43467;50.890;5.982;2023-10-08T01:25:29;100948.72;;;17.64;67.93
36234;BME280;43467;50.890;5.982;2023-10-08T01:27:58;100970.41;;;17.74;67.95
36234;BME280;43467;50.890;5.982;2023-10-08T01:30:27;100937.03;;;17.51;67.75
36234;BME280;43467;50.890;5.982;2023-10-08T01:32:59;100937.59;;;17.42;67.77
36234;BME280;43467;50.890;5.982;2023-10-08T01:35:28;100963.72;;;17.67;67.54
36234;BME280;43467;50.890;5.982;2023-10-08T01:37:53;100958.81;;;17.74;67.65
36234;BME280;43467;50.890;5.982;2023-10-08T01:40:21;100952.59;;;17.73;67.39
36234;BME280;43467;50.890;5.982;2023-10-08T01:42:53;100920.28;;;17.48;67.31
36234;BME280;43467;50.890;5.982;2023-10-08T01:45:18;100929.66;;;17.55;67.37
36234;BME280;43467;50.890;5.982;2023-10-08T01:47:45;100966.47;;;17.65;67.65
36234;BME280;43467;50.890;5.982;2023-10-08T01:50:10;100958.72;;;17.47;67.87
36234;BME280;43467;50.890;5.982;2023-10-08T01:52:55;100976.31;;;17.51;68.20
36234;BME280;43467;50.890;5.982;2023-10-08T01:55:21;100980.72;;;17.52;67.98
36234;BME280;43467;50.890;5.982;2023-10-08T01:57:49;100980.91;;;17.49;67.78
36234;BME280;43467;50.890;5.982;2023-10-08T02:00:15;100955.47;;;17.42;67.48
36234;BME280;43467;50.890;5.982;2023-10-08T02:02:52;100960.47;;;17.48;67.64
36234;BME280;43467;50.890;5.982;2023-10-08T02:05:23;100951.72;;;17.44;67.32
36234;BME280;43467;50.890;5.982;2023-10-08T02:07:50;100928.72;;;17.28;67.05
36234;BME280;43467;50.890;5.982;2023-10-08T02:10:16;100927.38;;;17.35;66.91
36234;BME280;43467;50.890;5.982;2023-10-08T02:12:42;100945.53;;;17.44;66.78
36234;BME280;43467;50.890;5.982;2023-10-08T02:15:08;100911.19;;;17.36;66.81
36234;BME280;43467;50.890;5.982;2023-10-08T02:17:34;100927.16;;;17.38;66.31
36234;BME280;43467;50.890;5.982;2023-10-08T02:20:00;100930.06;;;17.35;66.53
36234;BME280;43467;50.890;5.982;2023-10-08T02:22:30;100946.22;;;17.47;66.52
36234;BME280;43467;50.890;5.982;2023-10-08T02:24:56;100949.63;;;17.49;66.26
36234;BME280;43467;50.890;5.982;2023-10-08T02:27:29;100935.78;;;17.43;66.49
36234;BME280;43467;50.890;5.982;2023-10-08T02:29:54;100930.25;;;17.32;65.70
36234;BME280;43467;50.890;5.982;2023-10-08T02:32:21;100926.78;;;17.30;66.10
36234;BME280;43467;50.890;5.982;2023-10-08T02:34:55;100944.75;;;17.42;65.75
36234;BME280;43467;50.890;5.982;2023-10-08T02:37:22;100950.69;;;17.47;65.75
36234;BME280;43467;50.890;5.982;2023-10-08T02:39:47;100945.81;;;17.39;65.82
36234;BME280;43467;50.890;5.982;2023-10-08T02:42:13;100950.69;;;17.47;65.91
36234;BME280;43467;50.890;5.982;2023-10-08T02:44:40;100935.28;;;17.36;65.39
36234;BME280;43467;50.890;5.982;2023-10-08T02:47:09;100930.06;;;17.35;65.96
36234;BME280;43467;50.890;5.982;2023-10-08T02:49:37;100931.00;;;17.34;65.82
36234;BME280;43467;50.890;5.982;2023-10-08T02:52:06;100945.91;;;17.38;65.74
36234;BME280;43467;50.890;5.982;2023-10-08T02:54:34;100947.44;;;17.42;65.70
36234;BME280;43467;50.890;5.982;2023-10-08T02:57:02;100925.47;;;17.23;65.60
36234;BME280;43467;50.890;5.982;2023-10-08T02:59:40;100944.69;;;17.43;65.58
36234;BME280;43467;50.890;5.982;2023-10-08T03:02:13;100945.72;;;17.41;65.14
36234;BME280;43467;50.890;5.982;2023-10-08T03:04:47;100906.34;;;17.14;65.23
36234;BME280;43467;50.890;5.982;2023-10-08T03:07:14;100952.13;;;17.38;65.14
36234;BME280;43467;50.890;5.982;2023-10-08T03:09:58;100951.66;;;17.46;65.06
36234;BME280;43467;50.890;5.982;2023-10-08T03:12:42;100939.22;;;17.31;65.22
36234;BME280;43467;50.890;5.982;2023-10-08T03:15:08;100967.63;;;17.47;65.04
36234;BME280;43467;50.890;5.982;2023-10-08T03:18:03;100968.00;;;17.41;65.37
36234;BME280;43467;50.890;5.982;2023-10-08T03:20:38;100965.22;;;17.43;65.10
36234;BME280;43467;50.890;5.982;2023-10-08T03:23:09;100975.94;;;17.43;65.09
36234;BME280;43467;50.890;5.982;2023-10-08T03:25:55;100945.34;;;17.18;65.57
36234;BME280;43467;50.890;5.982;2023-10-08T03:28:41;100992.31;;;17.52;65.10
36234;BME280;43467;50.890;5.982;2023-10-08T03:31:06;100985.59;;;17.45;65.29
36234;BME280;43467;50.890;5.982;2023-10-08T03:33:39;100968.00;;;17.41;65.43
36234;BME280;43467;50.890;5.982;2023-10-08T03:36:06;100983.19;;;17.41;65.60
36234;BME280;43467;50.890;5.982;2023-10-08T03:38:51;100986.09;;;17.52;65.50
36234;BME280;43467;50.890;5.982;2023-10-08T03:41:26;100983.41;;;17.52;65.61
36234;BME280;43467;50.890;5.982;2023-10-08T03:44:10;100988.19;;;17.47;65.79
36234;BME280;43467;50.890;5.982;2023-10-08T03:46:39;100991.59;;;17.49;65.73
36234;BME280;43467;50.890;5.982;2023-10-08T03:49:08;100995.25;;;17.48;65.68
36234;BME280;43467;50.890;5.982;2023-10-08T03:51:42;100995.25;;;17.48;65.66
36234;BME280;43467;50.890;5.982;2023-10-08T03:54:07;100995.53;;;17.43;65.66
36234;BME280;43467;50.890;5.982;2023-10-08T03:56:33;100990.84;;;17.47;65.82
36234;BME280;43467;50.890;5.982;2023-10-08T03:59:02;100989.22;;;17.44;65.83
36234;BME280;43467;50.890;5.982;2023-10-08T04:01:45;100981.88;;;17.48;65.42
36234;BME280;43467;50.890;5.982;2023-10-08T04:04:11;100982.91;;;17.45;65.49
36234;BME280;43467;50.890;5.982;2023-10-08T04:06:40;100983.03;;;17.44;65.57
36234;BME280;43467;50.890;5.982;2023-10-08T04:09:13;100987.22;;;17.34;65.47
36234;BME280;43467;50.890;5.982;2023-10-08T04:11:50;100991.69;;;17.33;65.67
36234;BME280;43467;50.890;5.982;2023-10-08T04:14:22;100988.06;;;17.34;65.71
36234;BME280;43467;50.890;5.982;2023-10-08T04:16:48;100995.31;;;17.32;65.79
36234;BME280;43467;50.890;5.982;2023-10-08T04:19:17;100995.25;;;17.34;65.84
36234;BME280;43467;50.890;5.982;2023-10-08T04:21:44;100997.06;;;17.33;65.78
36234;BME280;43467;50.890;5.982;2023-10-08T04:24:11;101002.00;;;17.25;66.12
36234;BME280;43467;50.890;5.982;2023-10-08T04:26:40;101006.50;;;17.25;66.17
36234;BME280;43467;50.890;5.982;2023-10-08T04:29:06;101011.47;;;17.16;66.31
36234;BME280;43467;50.890;5.982;2023-10-08T04:31:35;101017.22;;;17.25;66.14
36234;BME280;43467;50.890;5.982;2023-10-08T04:34:05;101027.34;;;17.19;66.75
36234;BME280;43467;50.890;5.982;2023-10-08T04:36:47;101024.56;;;17.21;66.73
36234;BME280;43467;50.890;5.982;2023-10-08T04:39:19;101013.28;;;17.16;66.86
36234;BME280;43467;50.890;5.982;2023-10-08T04:42:06;101012.03;;;17.22;66.65
36234;BME280;43467;50.890;5.982;2023-10-08T04:44:39;101014.25;;;17.29;66.65
36234;BME280;43467;50.890;5.982;2023-10-08T04:47:06;101029.84;;;17.23;66.81
36234;BME280;43467;50.890;5.982;2023-10-08T04:49:33;101026.22;;;17.24;66.92
36234;BME280;43467;50.890;5.982;2023-10-08T04:52:01;101018.06;;;17.11;67.32
36234;BME280;43467;50.890;5.982;2023-10-08T04:54:39;101010.78;;;17.13;67.37
36234;BME280;43467;50.890;5.982;2023-10-08T04:57:07;101011.47;;;17.16;67.31
36234;BME280;43467;50.890;5.982;2023-10-08T04:59:43;101010.78;;;17.13;67.28
36234;BME280;43467;50.890;5.982;2023-10-08T05:02:09;100999.59;;;17.06;67.83
36234;BME280;43467;50.890;5.982;2023-10-08T05:04:45;100999.59;;;17.06;67.57
36234;BME280;43467;50.890;5.982;2023-10-08T05:07:17;100994.53;;;17.02;67.68
36234;BME280;43467;50.890;5.982;2023-10-08T05:09:47;101000.34;;;16.94;68.09
36234;BME280;43467;50.890;5.982;2023-10-08T05:12:29;100995.94;;;16.93;68.09
36234;BME280;43467;50.890;5.982;2023-10-08T05:15:11;101006.44;;;16.96;68.08
36234;BME280;43467;50.890;5.982;2023-10-08T05:17:46;101001.28;;;16.93;68.22
36234;BME280;43467;50.890;5.982;2023-10-08T05:20:16;101007.50;;;16.94;68.40
36234;BME280;43467;50.890;5.982;2023-10-08T05:23:09;101014.19;;;16.87;68.51
36234;BME280;43467;50.890;5.982;2023-10-08T05:25:54;101015.78;;;16.89;68.58
36234;BME280;43467;50.890;5.982;2023-10-08T05:28:24;101029.34;;;16.86;68.63
36234;BME280;43467;50.890;5.982;2023-10-08T05:30:51;101019.34;;;16.90;68.57
36234;BME280;43467;50.890;5.982;2023-10-08T05:33:35;101022.97;;;16.89;68.56
36234;BME280;43467;50.890;5.982;2023-10-08T05:36:23;101023.41;;;16.81;68.77
36234;BME280;43467;50.890;5.982;2023-10-08T05:39:18;101018.84;;;16.83;68.76
36234;BME280;43467;50.890;5.982;2023-10-08T05:41:50;101020.94;;;16.78;69.23
36234;BME280;43467;50.890;5.982;2023-10-08T05:44:42;101029.72;;;16.80;69.11
36234;BME280;43467;50.890;5.982;2023-10-08T05:47:26;101032.38;;;16.80;69.11
36234;BME280;43467;50.890;5.982;2023-10-08T05:49:58;101035.72;;;16.84;69.07
36234;BME280;43467;50.890;5.982;2023-10-08T05:52:43;101034.97;;;16.82;69.12
36234;BME280;43467;50.890;5.982;2023-10-08T05:55:32;101023.34;;;16.83;68.95
36234;BME280;43467;50.890;5.982;2023-10-08T05:58:12;101033.31;;;16.79;69.05
36234;BME280;43467;50.890;5.982;2023-10-08T06:00:38;101038.53;;;16.82;69.08
36234;BME280;43467;50.890;5.982;2023-10-08T06:03:16;101034.53;;;16.89;68.66
36234;BME280;43467;50.890;5.982;2023-10-08T06:06:08;101038.94;;;16.90;68.92
36234;BME280;43467;50.890;5.982;2023-10-08T06:08:36;101037.97;;;16.91;68.87
36234;BME280;43467;50.890;5.982;2023-10-08T06:11:20;101045.03;;;16.92;68.68
36234;BME280;43467;50.890;5.982;2023-10-08T06:14:15;101042.09;;;16.97;68.88
36234;BME280;43467;50.890;5.982;2023-10-08T06:17:12;101057.88;;;17.01;68.58
36234;BME280;43467;50.890;5.982;2023-10-08T06:20:01;101063.03;;;17.04;68.52
36234;BME280;43467;50.890;5.982;2023-10-08T06:22:35;101055.69;;;17.08;68.35
36234;BME280;43467;50.890;5.982;2023-10-08T06:25:00;101058.47;;;17.06;68.44
36234;BME280;43467;50.890;5.982;2023-10-08T06:27:42;101067.63;;;17.02;68.46
36234;BME280;43467;50.890;5.982;2023-10-08T06:30:11;101078.16;;;17.05;68.50
36234;BME280;43467;50.890;5.982;2023-10-08T06:32:42;101076.25;;;17.07;68.44
36234;BME280;43467;50.890;5.982;2023-10-08T06:35:09;101087.97;;;17.05;68.68
36234;BME280;43467;50.890;5.982;2023-10-08T06:37:43;101092.56;;;17.03;68.62
36234;BME280;43467;50.890;5.982;2023-10-08T06:40:08;101089.97;;;17.01;68.81
36234;BME280;43467;50.890;5.982;2023-10-08T06:42:54;101090.78;;;17.03;68.70
36234;BME280;43467;50.890;5.982;2023-10-08T06:45:22;101094.00;;;17.08;68.85
36234;BME280;43467;50.890;5.982;2023-10-08T06:47:48;101099.97;;;17.13;68.50
36234;BME280;43467;50.890;5.982;2023-10-08T06:50:15;101104.19;;;17.17;68.54
36234;BME280;43467;50.890;5.982;2023-10-08T06:52:41;101106.50;;;17.24;68.41
36234;BME280;43467;50.890;5.982;2023-10-08T06:55:09;101106.41;;;17.25;67.89
36234;BME280;43467;50.890;5.982;2023-10-08T06:57:37;101092.34;;;17.22;68.24
36234;BME280;43467;50.890;5.982;2023-10-08T07:00:04;101082.78;;;17.17;68.87
36234;BME280;43467;50.890;5.982;2023-10-08T07:02:37;101086.31;;;17.18;68.64
36234;BME280;43467;50.890;5.982;2023-10-08T07:05:05;101080.69;;;17.23;68.43
36234;BME280;43467;50.890;5.982;2023-10-08T07:07:34;101075.13;;;17.11;68.84
36234;BME280;43467;50.890;5.982;2023-10-08T07:10:05;101083.91;;;17.13;68.95
36234;BME280;43467;50.890;5.982;2023-10-08T07:12:35;101086.16;;;17.05;69.12
36234;BME280;43467;50.890;5.982;2023-10-08T07:15:01;101089.91;;;17.03;69.44
36234;BME280;43467;50.890;5.982;2023-10-08T07:17:29;101083.75;;;17.01;69.78
36234;BME280;43467;50.890;5.982;2023-10-08T07:20:06;101087.13;;;17.04;69.82
36234;BME280;43467;50.890;5.982;2023-10-08T07:22:39;101089.91;;;17.03;70.00
36234;BME280;43467;50.890;5.982;2023-10-08T07:25:05;101079.53;;;16.97;70.43
36234;BME280;43467;50.890;5.982;2023-10-08T07:27:34;101074.00;;;17.00;70.35
36234;BME280;43467;50.890;5.982;2023-10-08T07:30:03;101067.72;;;17.01;70.24
36234;BME280;43467;50.890;5.982;2023-10-08T07:32:39;101059.00;;;16.97;70.30
36234;BME280;43467;50.890;5.982;2023-10-08T07:35:05;101066.94;;;16.99;70.54
36234;BME280;43467;50.890;5.982;2023-10-08T07:37:51;101063.16;;;17.03;70.52
36234;BME280;43467;50.890;5.982;2023-10-08T07:40:19;101064.56;;;17.08;70.19
36234;BME280;43467;50.890;5.982;2023-10-08T07:42:46;101070.97;;;17.06;70.47
36234;BME280;43467;50.890;5.982;2023-10-08T07:45:19;101058.88;;;17.14;70.03
36234;BME280;43467;50.890;5.982;2023-10-08T07:47:47;101054.47;;;17.13;70.51
36234;BME280;43467;50.890;5.982;2023-10-08T07:50:13;101057.63;;;17.20;69.95
36234;BME280;43467;50.890;5.982;2023-10-08T07:52:41;101061.69;;;17.27;69.87
36234;BME280;43467;50.890;5.982;2023-10-08T07:55:09;101055.94;;;17.19;69.96
36234;BME280;43467;50.890;5.982;2023-10-08T07:57:35;101068.31;;;17.20;70.29
36234;BME280;43467;50.890;5.982;2023-10-08T08:00:01;101059.88;;;17.28;70.14
36234;BME280;43467;50.890;5.982;2023-10-08T08:02:43;101061.28;;;17.33;70.26
36234;BME280;43467;50.890;5.982;2023-10-08T08:05:09;101060.63;;;17.30;69.94
36234;BME280;43467;50.890;5.982;2023-10-08T08:07:35;101066.56;;;17.35;69.92
36234;BME280;43467;50.890;5.982;2023-10-08T08:10:00;101061.88;;;17.38;69.74
36234;BME280;43467;50.890;5.982;2023-10-08T08:12:27;101068.09;;;17.39;69.89
36234;BME280;43467;50.890;5.982;2023-10-08T08:14:58;101062.09;;;17.49;69.93
36234;BME280;43467;50.890;5.982;2023-10-08T08:17:24;101060.94;;;17.53;69.78
36234;BME280;43467;50.890;5.982;2023-10-08T08:19:51;101060.78;;;17.56;69.90
36234;BME280;43467;50.890;5.982;2023-10-08T08:22:18;101048.63;;;17.51;70.04
36234;BME280;43467;50.890;5.982;2023-10-08T08:24:51;101055.41;;;17.56;69.83
36234;BME280;43467;50.890;5.982;2023-10-08T08:27:25;101053.78;;;17.54;70.17
36234;BME280;43467;50.890;5.982;2023-10-08T08:29:57;101062.03;;;17.65;69.97
36234;BME280;43467;50.890;5.982;2023-10-08T08:32:38;101065.88;;;17.75;69.83
36234;BME280;43467;50.890;5.982;2023-10-08T08:35:06;101063.94;;;17.77;69.60
36234;BME280;43467;50.890;5.982;2023-10-08T08:37:33;101054.75;;;17.81;69.68
36234;BME280;43467;50.890;5.982;2023-10-08T08:40:02;101065.31;;;17.84;69.63
36234;BME280;43467;50.890;5.982;2023-10-08T08:42:33;101068.16;;;17.81;69.85
36234;BME280;43467;50.890;5.982;2023-10-08T08:45:02;101080.13;;;17.76;70.38
36234;BME280;43467;50.890;5.982;2023-10-08T08:47:34;101076.66;;;17.74;70.88
36234;BME280;43467;50.890;5.982;2023-10-08T08:50:02;101074.97;;;17.87;70.68
36234;BME280;43467;50.890;5.982;2023-10-08T08:52:35;101073.31;;;17.98;70.13
36234;BME280;43467;50.890;5.982;2023-10-08T08:55:06;101078.13;;;18.07;70.36
36234;BME280;43467;50.890;5.982;2023-10-08T08:57:39;101087.69;;;18.11;70.09
36234;BME280;43467;50.890;5.982;2023-10-08T09:00:08;101103.75;;;18.11;70.27
36234;BME280;43467;50.890;5.982;2023-10-08T09:02:38;101096.97;;;18.20;70.26
36234;BME280;43467;50.890;5.982;2023-10-08T09:05:04;101105.59;;;18.25;70.04
36234;BME280;43467;50.890;5.982;2023-10-08T09:08:02;101111.91;;;18.24;70.21
36234;BME280;43467;50.890;5.982;2023-10-08T09:10:30;101121.47;;;18.28;70.20
36234;BME280;43467;50.890;5.982;2023-10-08T09:13:03;101135.44;;;18.33;69.90
36234;BME280;43467;50.890;5.982;2023-10-08T09:15:29;101129.59;;;18.27;70.02
36234;BME280;43467;50.890;5.982;2023-10-08T09:17:55;101130.47;;;18.27;70.08
36234;BME280;43467;50.890;5.982;2023-10-08T09:20:21;101126.38;;;18.22;70.69
36234;BME280;43467;50.890;5.982;2023-10-08T09:23:05;101123.00;;;18.32;70.94
36234;BME280;43467;50.890;5.982;2023-10-08T09:25:33;101139.38;;;18.42;70.48
36234;BME280;43467;50.890;5.982;2023-10-08T09:27:58;101138.09;;;18.47;70.20
36234;BME280;43467;50.890;5.982;2023-10-08T09:30:24;101146.25;;;18.46;70.32
36234;BME280;43467;50.890;5.982;2023-10-08T09:32:51;101138.66;;;18.38;70.40
36234;BME280;43467;50.890;5.982;2023-10-08T09:35:17;101141.72;;;18.46;70.02
36234;BME280;43467;50.890;5.982;2023-10-08T09:37:44;101139.63;;;18.51;69.96
36234;BME280;43467;50.890;5.982;2023-10-08T09:40:11;101151.16;;;18.53;70.32
36234;BME280;43467;50.890;5.982;2023-10-08T09:42:41;101153.63;;;18.56;70.25
36234;BME280;43467;50.890;5.982;2023-10-08T09:45:07;101153.44;;;18.45;70.47
36234;BME280;43467;50.890;5.982;2023-10-08T09:47:36;101154.78;;;18.52;70.34
36234;BME280;43467;50.890;5.982;2023-10-08T09:50:04;101147.94;;;18.47;70.39
36234;BME280;43467;50.890;5.982;2023-10-08T09:52:55;101111.22;;;18.21;70.79
36234;BME280;43467;50.890;5.982;2023-10-08T09:55:26;101132.06;;;18.44;70.94
36234;BME280;43467;50.890;5.982;2023-10-08T09:57:52;101159.16;;;18.68;70.80
36234;BME280;43467;50.890;5.982;2023-10-08T10:00:21;101144.78;;;18.69;70.24
36234;BME280;43467;50.890;5.982;2023-10-08T10:02:58;101122.47;;;18.68;69.65
36234;BME280;43467;50.890;5.982;2023-10-08T10:05:29;101116.34;;;18.66;69.32
36234;BME280;43467;50.890;5.982;2023-10-08T10:07:55;101140.16;;;18.85;69.51
36234;BME280;43467;50.890;5.982;2023-10-08T10:10:30;101152.03;;;18.95;69.60
36234;BME280;43467;50.890;5.982;2023-10-08T10:13:00;101157.03;;;18.87;69.38
36234;BME280;43467;50.890;5.982;2023-10-08T10:15:26;101154.38;;;18.99;69.25
36234;BME280;43467;50.890;5.982;2023-10-08T10:17:51;101154.28;;;19.01;69.74
36234;BME280;43467;50.890;5.982;2023-10-08T10:20:17;101160.09;;;19.08;69.70
36234;BME280;43467;50.890;5.982;2023-10-08T10:22:44;101151.94;;;19.09;69.26
36234;BME280;43467;50.890;5.982;2023-10-08T10:25:09;101154.91;;;19.19;69.56
36234;BME280;43467;50.890;5.982;2023-10-08T10:30:24;101154.69;;;19.22;69.70
36234;BME280;43467;50.890;5.982;2023-10-08T10:32:54;101157.72;;;19.30;69.91
36234;BME280;43467;50.890;5.982;2023-10-08T10:35:20;101166.72;;;19.29;69.54
36234;BME280;43467;50.890;5.982;2023-10-08T10:37:48;101164.69;;;19.32;69.48
36234;BME280;43467;50.890;5.982;2023-10-08T10:40:21;101167.38;;;19.32;69.60
36234;BME280;43467;50.890;5.982;2023-10-08T10:42:58;101150.09;;;19.36;69.97
36234;BME280;43467;50.890;5.982;2023-10-08T10:45:28;101156.88;;;19.42;69.72
36234;BME280;43467;50.890;5.982;2023-10-08T10:48:08;101149.09;;;19.52;70.21
36234;BME280;43467;50.890;5.982;2023-10-08T10:50:47;101148.66;;;19.58;69.54
36234;BME280;43467;50.890;5.982;2023-10-08T10:53:38;101142.66;;;19.67;69.07
36234;BME280;43467;50.890;5.982;2023-10-08T10:56:17;101134.84;;;19.76;69.35
36234;BME280;43467;50.890;5.982;2023-10-08T10:58:58;101125.06;;;19.88;69.56
36234;BME280;43467;50.890;5.982;2023-10-08T11:01:27;101129.13;;;19.93;69.00
36234;BME280;43467;50.890;5.982;2023-10-08T11:03:56;101126.56;;;19.92;68.47
36234;BME280;43467;50.890;5.982;2023-10-08T11:06:23;101124.19;;;20.00;68.71
36234;BME280;43467;50.890;5.982;2023-10-08T11:08:53;101116.13;;;20.00;68.89
36234;BME280;43467;50.890;5.982;2023-10-08T11:11:26;101084.31;;;19.69;68.30
36234;BME280;43467;50.890;5.982;2023-10-08T11:13:59;101094.94;;;19.70;68.62
36234;BME280;43467;50.890;5.982;2023-10-08T11:16:25;101100.00;;;19.75;69.01
36234;BME280;43467;50.890;5.982;2023-10-08T11:18:53;101145.06;;;20.09;69.01
36234;BME280;43467;50.890;5.982;2023-10-08T11:21:23;101128.38;;;20.17;68.53
36234;BME280;43467;50.890;5.982;2023-10-08T11:23:51;101123.41;;;20.23;68.70
36234;BME280;43467;50.890;5.982;2023-10-08T11:26:37;101124.38;;;20.22;68.25
36234;BME280;43467;50.890;5.982;2023-10-08T11:29:19;101116.84;;;20.27;68.85
36234;BME280;43467;50.890;5.982;2023-10-08T11:31:51;101109.56;;;20.29;67.67
36234;BME280;43467;50.890;5.982;2023-10-08T11:34:16;101104.19;;;20.29;68.00
36234;BME280;43467;50.890;5.982;2023-10-08T11:36:45;101111.72;;;20.37;68.18
36234;BME280;43467;50.890;5.982;2023-10-08T11:39:18;101112.34;;;20.40;68.77
36234;BME280;43467;50.890;5.982;2023-10-08T11:42:02;101109.41;;;20.44;68.20
36234;BME280;43467;50.890;5.982;2023-10-08T11:44:30;101101.75;;;20.50;68.12
36234;BME280;43467;50.890;5.982;2023-10-08T11:46:56;101112.59;;;20.61;68.43
36234;BME280;43467;50.890;5.982;2023-10-08T11:49:30;101101.13;;;20.47;68.02
36234;BME280;43467;50.890;5.982;2023-10-08T11:51:57;101100.69;;;20.53;67.52
36234;BME280;43467;50.890;5.982;2023-10-08T11:54:23;101097.66;;;20.57;66.96
36234;BME280;43467;50.890;5.982;2023-10-08T11:56:48;101100.00;;;20.62;67.46
36234;BME280;43467;50.890;5.982;2023-10-08T11:59:14;101094.50;;;20.63;67.06
36234;BME280;43467;50.890;5.982;2023-10-08T12:01:43;101096.84;;;20.68;67.09
36234;BME280;43467;50.890;5.982;2023-10-08T12:04:09;101092.91;;;20.84;67.69
36234;BME280;43467;50.890;5.982;2023-10-08T12:06:41;101092.97;;;20.96;67.51
36234;BME280;43467;50.890;5.982;2023-10-08T12:09:15;101089.19;;;20.98;66.58
36234;BME280;43467;50.890;5.982;2023-10-08T12:11:40;101091.53;;;21.03;66.46
36234;BME280;43467;50.890;5.982;2023-10-08T12:14:06;101083.47;;;21.03;65.94
36234;BME280;43467;50.890;5.982;2023-10-08T12:16:31;101085.16;;;21.04;65.79
36234;BME280;43467;50.890;5.982;2023-10-08T12:19:01;101084.53;;;21.00;66.41
36234;BME280;43467;50.890;5.982;2023-10-08T12:21:27;101078.44;;;20.98;65.41
36234;BME280;43467;50.890;5.982;2023-10-08T12:23:55;101083.91;;;20.97;65.42
36234;BME280;43467;50.890;5.982;2023-10-08T12:26:22;101082.38;;;21.05;65.59
36234;BME280;43467;50.890;5.982;2023-10-08T12:28:48;101076.88;;;21.07;65.85
36234;BME280;43467;50.890;5.982;2023-10-08T12:31:17;101077.28;;;21.13;65.51
36234;BME280;43467;50.890;5.982;2023-10-08T12:33:48;101076.94;;;21.18;65.13
36234;BME280;43467;50.890;5.982;2023-10-08T12:36:13;101087.22;;;21.24;65.30
36234;BME280;43467;50.890;5.982;2023-10-08T12:38:40;101086.03;;;21.28;64.79
36234;BME280;43467;50.890;5.982;2023-10-08T12:41:07;101078.97;;;21.38;65.24
36234;BME280;43467;50.890;5.982;2023-10-08T12:43:40;101080.97;;;21.58;65.70
36234;BME280;43467;50.890;5.982;2023-10-08T12:46:08;101068.97;;;21.73;65.68
36234;BME280;43467;50.890;5.982;2023-10-08T12:48:36;101072.88;;;21.80;63.75
36234;BME280;43467;50.890;5.982;2023-10-08T12:51:03;101070.44;;;21.89;64.17
36234;BME280;43467;50.890;5.982;2023-10-08T12:53:31;101060.28;;;21.81;62.93
36234;BME280;43467;50.890;5.982;2023-10-08T12:56:10;101055.03;;;21.91;63.18
36234;BME280;43467;50.890;5.982;2023-10-08T12:58:43;101056.75;;;22.03;62.97
36234;BME280;43467;50.890;5.982;2023-10-08T13:01:17;101055.78;;;22.04;63.03
36234;BME280;43467;50.890;5.982;2023-10-08T13:03:43;101057.25;;;22.08;62.80
36234;BME280;43467;50.890;5.982;2023-10-08T13:06:19;101051.34;;;22.14;62.14
36234;BME280;43467;50.890;5.982;2023-10-08T13:08:54;101056.00;;;22.23;62.28
36234;BME280;43467;50.890;5.982;2023-10-08T13:11:20;101056.75;;;22.25;61.76
36234;BME280;43467;50.890;5.982;2023-10-08T13:13:51;101050.00;;;22.31;61.93